WXM80 ListenWXM80 Stop

You find our weather info also at:

UK Metoffice

WeatherCloud

Weather Underground

Northeastern Weather Network

AWEKAS

Citizen Weather Observer Program (CWOP)

HAMweather, WeatherForYou, PWS Weather


Weather Underground History page Text

Daily Summary for November 7, 2016 Units:  English    Metric   Both
« Previous Day
Next Day »
Daily Weekly Monthly Yearly Custom
  High: Low: Average:
Temperature: 52.1 °F 37.7 °F 44.9 °F
Dew Point: 37.2 °F 31.2 °F 33.5 °F
Humidity: 88 % 45 % 65 %
Wind Speed: 15.0 mph 0.0 mph 4.5 mph
Wind Gust: 23.0 mph - -
Wind:- - ENE
Pressure: 30.46 in 30.26 in -
Precipitation: 0.00 in    
Historical Graphs
 
 
Tabular Data for November 7, 2016
Time Temperature Dew Point Pressure Wind Wind Speed Wind Gust Humidity Rainfall Rate (Hourly)
00:00 45.5 °F 33.2 °F 30.36 in North 8.8 mph 11.5 mph 62 % 0.00 in
00:05 45.5 °F 33.6 °F 30.36 in NNE 9.0 mph 20.0 mph 63 % 0.00 in
00:10 45.6 °F 33.3 °F 30.36 in NNE 12.0 mph 16.0 mph 62 % 0.00 in
00:15 45.6 °F 32.9 °F 30.36 in NNE 10.0 mph 20.0 mph 61 % 0.00 in
00:20 45.7 °F 33.8 °F 30.36 in NNE 8.0 mph 18.0 mph 63 % 0.00 in
00:25 45.7 °F 33.8 °F 30.36 in NNE 10.0 mph 18.0 mph 63 % 0.00 in
00:30 45.8 °F 34.3 °F 30.36 in NNE 7.7 mph 12.7 mph 64 % 0.00 in
00:35 45.7 °F 34.2 °F 30.36 in NNE 9.0 mph 15.0 mph 64 % 0.00 in
00:40 45.7 °F 33.8 °F 30.36 in NNE 10.0 mph 20.0 mph 63 % 0.00 in
00:45 45.7 °F 33.4 °F 30.35 in NNE 10.0 mph 16.0 mph 62 % 0.00 in
00:50 45.7 °F 33.0 °F 30.35 in NNE 15.0 mph 22.0 mph 61 % 0.00 in
00:55 45.7 °F 33.8 °F 30.35 in NNE 10.0 mph 18.0 mph 63 % 0.00 in
01:00 45.7 °F 33.8 °F 30.35 in NE 11.5 mph 19.6 mph 63 % 0.00 in
01:05 45.8 °F 33.5 °F 30.36 in NNE 12.0 mph 22.0 mph 62 % 0.00 in
01:10 45.7 °F 33.4 °F 30.36 in NNE 10.0 mph 17.0 mph 62 % 0.00 in
01:15 45.7 °F 33.0 °F 30.36 in NNE 12.0 mph 20.0 mph 61 % 0.00 in
01:20 45.6 °F 33.3 °F 30.36 in NNE 11.5 mph 15.0 mph 62 % 0.00 in
01:25 45.5 °F 33.3 °F 30.36 in NNE 13.0 mph 23.0 mph 62 % 0.00 in
01:30 45.5 °F 32.8 °F 30.36 in NNE 14.0 mph 22.0 mph 61 % 0.00 in
01:35 45.4 °F 33.2 °F 30.36 in NNE 13.0 mph 22.0 mph 62 % 0.00 in
01:40 45.4 °F 32.7 °F 30.36 in NNE 13.0 mph 21.0 mph 61 % 0.00 in
01:45 45.4 °F 32.7 °F 30.36 in NNE 13.0 mph 20.0 mph 61 % 0.00 in
01:50 45.4 °F 33.5 °F 30.36 in NNE 10.2 mph 12.0 mph 63 % 0.00 in
01:55 45.4 °F 33.1 °F 30.37 in NNE 8.0 mph 18.0 mph 62 % 0.00 in
02:00 45.4 °F 33.5 °F 30.37 in NNE 9.4 mph 18.4 mph 63 % 0.00 in
02:05 45.4 °F 32.7 °F 30.37 in NNE 8.9 mph 19.6 mph 61 % 0.00 in
02:10 45.4 °F 33.1 °F 30.37 in NE 10.2 mph 16.1 mph 62 % 0.00 in
02:16 45.3 °F 32.6 °F 30.37 in NNE 11.7 mph 17.3 mph 61 % 0.00 in
02:21 45.2 °F 32.1 °F 30.37 in NNE 11.3 mph 17.3 mph 60 % 0.00 in
02:26 45.2 °F 31.7 °F 30.37 in NE 13.5 mph 21.9 mph 59 % 0.00 in
02:31 45.2 °F 32.5 °F 30.37 in NNE 9.8 mph 17.3 mph 61 % 0.00 in
02:36 45.1 °F 32.0 °F 30.37 in NNE 11.1 mph 11.5 mph 60 % 0.00 in
02:41 45.1 °F 32.4 °F 30.37 in NE 10.8 mph 14.0 mph 61 % 0.00 in
02:46 45.0 °F 32.3 °F 30.37 in ENE 8.6 mph 14.0 mph 61 % 0.00 in
02:51 45.0 °F 33.5 °F 30.37 in NNE 8.0 mph 17.3 mph 64 % 0.00 in
02:56 45.0 °F 32.8 °F 30.38 in NE 6.8 mph 12.7 mph 62 % 0.00 in
03:01 44.9 °F 32.7 °F 30.38 in ENE 12.9 mph 21.9 mph 62 % 0.00 in
03:07 44.9 °F 33.5 °F 30.38 in ENE 10.2 mph 15.0 mph 64 % 0.00 in
03:12 44.8 °F 33.4 °F 30.38 in NNE 5.6 mph 10.4 mph 64 % 0.00 in
03:17 44.7 °F 32.9 °F 30.38 in NNE 11.0 mph 16.1 mph 63 % 0.00 in
03:22 44.7 °F 33.6 °F 30.38 in North 9.3 mph 12.7 mph 65 % 0.00 in
03:27 44.6 °F 32.8 °F 30.38 in NNE 12.4 mph 19.6 mph 63 % 0.00 in
03:32 44.6 °F 32.8 °F 30.38 in North 12.2 mph 18.4 mph 63 % 0.00 in
03:37 44.5 °F 32.7 °F 30.38 in NNE 9.1 mph 15.0 mph 63 % 0.00 in
03:42 44.6 °F 32.4 °F 30.38 in NNW 13.3 mph 20.0 mph 62 % 0.00 in
03:47 44.6 °F 32.8 °F 30.38 in ENE 10.7 mph 16.1 mph 63 % 0.00 in
03:52 44.6 °F 32.8 °F 30.39 in North 11.3 mph 16.1 mph 63 % 0.00 in
03:57 44.5 °F 32.7 °F 30.39 in North 13.6 mph 19.6 mph 63 % 0.00 in
04:02 44.5 °F 32.3 °F 30.39 in North 10.1 mph 18.0 mph 62 % 0.00 in
04:08 44.6 °F 33.2 °F 30.39 in North 10.4 mph 21.0 mph 64 % 0.00 in
04:13 44.5 °F 33.1 °F 30.39 in NNE 10.2 mph 20.0 mph 64 % 0.00 in
04:18 44.5 °F 33.8 °F 30.39 in NE 9.9 mph 19.6 mph 66 % 0.00 in
04:23 44.4 °F 33.0 °F 30.39 in NNE 8.4 mph 19.6 mph 64 % 0.00 in
04:28 44.3 °F 33.3 °F 30.39 in NNE 11.3 mph 19.0 mph 65 % 0.00 in
04:33 44.2 °F 32.8 °F 30.39 in North 10.9 mph 18.4 mph 64 % 0.00 in
04:38 44.1 °F 33.1 °F 30.39 in NNE 12.7 mph 15.0 mph 65 % 0.00 in
04:43 44.0 °F 32.2 °F 30.39 in ENE 11.6 mph 19.6 mph 63 % 0.00 in
04:48 44.0 °F 32.6 °F 30.39 in NNE 14.0 mph 20.7 mph 64 % 0.00 in
04:53 43.9 °F 32.5 °F 30.39 in NNE 7.8 mph 13.8 mph 64 % 0.00 in
04:59 43.8 °F 32.8 °F 30.39 in NE 8.8 mph 11.5 mph 65 % 0.00 in
05:04 43.7 °F 32.3 °F 30.39 in North 8.5 mph 16.1 mph 64 % 0.00 in
05:09 43.7 °F 32.7 °F 30.40 in NE 10.1 mph 12.7 mph 65 % 0.00 in
05:14 43.6 °F 32.6 °F 30.40 in NNE 7.9 mph 16.1 mph 65 % 0.00 in
05:19 43.6 °F 33.0 °F 30.40 in NE 6.7 mph 15.0 mph 66 % 0.00 in
05:24 43.6 °F 32.6 °F 30.40 in NNE 7.9 mph 10.4 mph 65 % 0.00 in
05:29 43.5 °F 32.9 °F 30.40 in NNE 6.6 mph 16.1 mph 66 % 0.00 in
05:34 43.5 °F 33.3 °F 30.40 in NNE 8.9 mph 11.5 mph 67 % 0.00 in
05:39 43.4 °F 32.4 °F 30.40 in NNE 9.2 mph 15.0 mph 65 % 0.00 in
05:45 43.3 °F 32.7 °F 30.40 in NNE 10.2 mph 17.3 mph 66 % 0.00 in
05:50 43.3 °F 33.1 °F 30.40 in North 10.2 mph 17.0 mph 67 % 0.00 in
05:55 43.2 °F 33.3 °F 30.40 in NNE 11.3 mph 19.0 mph 68 % 0.00 in
06:00 43.1 °F 32.9 °F 30.40 in NNE 10.0 mph 16.1 mph 67 % 0.00 in
06:05 43.1 °F 32.9 °F 30.41 in North 10.4 mph 16.1 mph 67 % 0.00 in
06:10 43.0 °F 32.8 °F 30.41 in North 11.1 mph 18.4 mph 67 % 0.00 in
06:15 43.0 °F 33.2 °F 30.41 in North 7.4 mph 12.7 mph 68 % 0.00 in
06:20 43.1 °F 33.3 °F 30.41 in NNE 10.0 mph 16.1 mph 68 % 0.00 in
06:25 43.1 °F 33.3 °F 30.41 in North 12.6 mph 17.3 mph 68 % 0.00 in
06:30 43.1 °F 33.3 °F 30.41 in North 10.2 mph 15.0 mph 68 % 0.00 in
06:35 43.1 °F 33.6 °F 30.42 in NE 8.0 mph 15.0 mph 69 % 0.00 in
06:40 43.0 °F 33.5 °F 30.42 in NE 7.0 mph 14.0 mph 69 % 0.00 in
06:45 42.9 °F 33.4 °F 30.42 in NNE 9.0 mph 16.0 mph 69 % 0.00 in
06:50 42.9 °F 33.4 °F 30.43 in NNE 7.0 mph 15.0 mph 69 % 0.00 in
06:55 42.8 °F 33.3 °F 30.43 in NNE 10.0 mph 17.0 mph 69 % 0.00 in
07:00 42.8 °F 33.7 °F 30.43 in NNE 8.6 mph 17.3 mph 70 % 0.00 in
07:05 42.8 °F 33.7 °F 30.43 in NNE 9.0 mph 13.8 mph 70 % 0.00 in
07:10 42.8 °F 34.0 °F 30.43 in NE 9.0 mph 16.1 mph 71 % 0.00 in
07:16 42.8 °F 34.0 °F 30.43 in NNE 7.0 mph 12.7 mph 71 % 0.00 in
07:21 42.9 °F 34.1 °F 30.43 in ENE 5.2 mph 11.5 mph 71 % 0.00 in
07:26 42.9 °F 34.1 °F 30.43 in NNE 11.1 mph 13.8 mph 71 % 0.00 in
07:31 42.8 °F 34.4 °F 30.44 in NE 7.7 mph 13.0 mph 72 % 0.00 in
07:36 42.9 °F 34.1 °F 30.44 in NNE 9.0 mph 16.1 mph 71 % 0.00 in
07:41 42.9 °F 34.1 °F 30.44 in NNE 8.6 mph 15.0 mph 71 % 0.00 in
07:46 42.9 °F 34.5 °F 30.44 in NNW 8.6 mph 11.0 mph 72 % 0.00 in
07:51 42.9 °F 34.5 °F 30.44 in ENE 8.3 mph 13.8 mph 72 % 0.00 in
07:56 43.0 °F 34.6 °F 30.44 in NNE 7.3 mph 13.8 mph 72 % 0.00 in
08:01 43.1 °F 34.7 °F 30.44 in NNE 7.4 mph 11.5 mph 72 % 0.00 in
08:07 43.2 °F 34.8 °F 30.44 in NE 5.5 mph 10.0 mph 72 % 0.00 in
08:12 43.4 °F 35.0 °F 30.45 in NNE 6.8 mph 12.0 mph 72 % 0.00 in
08:17 43.6 °F 35.2 °F 30.45 in NNE 5.8 mph 10.4 mph 72 % 0.00 in
08:22 43.8 °F 35.0 °F 30.45 in East 6.0 mph 11.5 mph 71 % 0.00 in
08:27 44.0 °F 35.2 °F 30.45 in North 4.3 mph 9.2 mph 71 % 0.00 in
08:32 44.2 °F 35.0 °F 30.45 in ENE 6.8 mph 12.7 mph 70 % 0.00 in
08:37 44.7 °F 35.5 °F 30.45 in NNE 9.2 mph 11.5 mph 70 % 0.00 in
08:42 45.3 °F 35.4 °F 30.45 in ENE 6.0 mph 11.0 mph 68 % 0.00 in
08:47 45.9 °F 35.6 °F 30.45 in ENE 7.7 mph 10.4 mph 67 % 0.00 in
08:52 46.2 °F 35.5 °F 30.45 in NE 6.5 mph 11.5 mph 66 % 0.00 in
08:57 46.4 °F 35.3 °F 30.45 in NE 5.5 mph 9.2 mph 65 % 0.00 in
09:03 46.7 °F 35.9 °F 30.46 in NNE 5.4 mph 10.0 mph 66 % 0.00 in
09:08 46.8 °F 35.3 °F 30.46 in ENE 8.2 mph 12.7 mph 64 % 0.00 in
09:13 46.8 °F 35.6 °F 30.45 in ENE 5.9 mph 10.4 mph 65 % 0.00 in
09:18 47.2 °F 36.0 °F 30.46 in ENE 4.4 mph 9.2 mph 65 % 0.00 in
09:23 47.4 °F 35.8 °F 30.46 in ENE 5.7 mph 8.1 mph 64 % 0.00 in
09:28 47.7 °F 35.7 °F 30.46 in ENE 7.4 mph 10.0 mph 63 % 0.00 in
09:33 48.1 °F 36.5 °F 30.45 in ENE 5.9 mph 7.0 mph 64 % 0.00 in
09:38 48.5 °F 36.1 °F 30.46 in NNE 4.8 mph 13.8 mph 62 % 0.00 in
09:43 48.9 °F 36.9 °F 30.46 in ENE 6.2 mph 9.2 mph 63 % 0.00 in
09:48 49.4 °F 36.5 °F 30.45 in North 3.9 mph 10.4 mph 61 % 0.00 in
09:54 49.7 °F 37.2 °F 30.45 in NNE 3.9 mph 8.0 mph 62 % 0.00 in
09:59 49.7 °F 36.4 °F 30.46 in NE 3.6 mph 5.8 mph 60 % 0.00 in
10:04 49.5 °F 36.2 °F 30.46 in NNE 4.2 mph 10.4 mph 60 % 0.00 in
10:09 49.8 °F 36.5 °F 30.46 in NNE 3.9 mph 6.9 mph 60 % 0.00 in
10:14 50.2 °F 36.4 °F 30.46 in NNE 4.4 mph 9.2 mph 59 % 0.00 in
10:19 50.3 °F 35.6 °F 30.45 in ENE 6.6 mph 12.7 mph 57 % 0.00 in
10:24 50.4 °F 35.3 °F 30.46 in NNE 5.8 mph 11.5 mph 56 % 0.00 in
10:29 50.7 °F 36.5 °F 30.46 in East 4.3 mph 8.0 mph 58 % 0.00 in
10:34 50.9 °F 36.2 °F 30.46 in NNE 5.7 mph 9.2 mph 57 % 0.00 in
10:39 51.0 °F 35.8 °F 30.45 in NNE 3.4 mph 8.0 mph 56 % 0.00 in
10:45 51.1 °F 35.9 °F 30.45 in North 6.1 mph 10.4 mph 56 % 0.00 in
10:50 50.9 °F 35.7 °F 30.45 in North 4.2 mph 8.1 mph 56 % 0.00 in
10:55 50.7 °F 34.6 °F 30.45 in NNE 4.6 mph 6.9 mph 54 % 0.00 in
11:00 50.5 °F 34.5 °F 30.45 in NE 5.2 mph 6.9 mph 54 % 0.00 in
11:05 50.7 °F 35.1 °F 30.44 in NNE 4.1 mph 5.8 mph 55 % 0.00 in
11:10 50.7 °F 34.6 °F 30.44 in NE 4.5 mph 10.4 mph 54 % 0.00 in
11:15 50.3 °F 33.8 °F 30.44 in NE 3.5 mph 11.5 mph 53 % 0.00 in
11:20 49.9 °F 33.9 °F 30.44 in NE 3.0 mph 6.0 mph 54 % 0.00 in
11:25 49.5 °F 33.0 °F 30.43 in NE 6.0 mph 8.0 mph 53 % 0.00 in
11:30 49.0 °F 33.1 °F 30.43 in NE 3.0 mph 8.0 mph 54 % 0.00 in
11:35 48.8 °F 33.3 °F 30.43 in NE 5.0 mph 7.0 mph 55 % 0.00 in
11:40 48.7 °F 33.2 °F 30.43 in NNE 6.0 mph 9.0 mph 55 % 0.00 in
11:45 48.5 °F 33.9 °F 30.42 in NNE 5.6 mph 8.0 mph 57 % 0.00 in
11:50 48.4 °F 33.4 °F 30.42 in NNE 3.0 mph 8.0 mph 56 % 0.00 in
11:55 48.5 °F 33.1 °F 30.42 in NNE 2.0 mph 6.0 mph 55 % 0.00 in
12:00 48.8 °F 32.4 °F 30.42 in ENE 1.9 mph 3.5 mph 53 % 0.00 in
12:05 48.8 °F 33.3 °F 30.42 in North 3.5 mph 5.8 mph 55 % 0.00 in
12:10 48.8 °F 33.3 °F 30.41 in North 4.8 mph 5.0 mph 55 % 0.00 in
12:15 48.8 °F 32.9 °F 30.42 in NNE 2.0 mph 6.0 mph 54 % 0.00 in
12:20 48.7 °F 33.3 °F 30.41 in NNE 2.0 mph 6.0 mph 55 % 0.00 in
12:25 48.7 °F 33.2 °F 30.41 in NNE 2.0 mph 6.0 mph 55 % 0.00 in
12:30 48.6 °F 33.1 °F 30.41 in North 3.0 mph 6.0 mph 55 % 0.00 in
12:35 48.6 °F 33.1 °F 30.41 in North 3.0 mph 6.0 mph 55 % 0.00 in
12:40 48.7 °F 33.2 °F 30.40 in NNW 2.0 mph 6.0 mph 55 % 0.00 in
12:45 48.9 °F 33.4 °F 30.40 in NNW 3.0 mph 6.0 mph 55 % 0.00 in
12:50 49.2 °F 33.3 °F 30.39 in NNW 2.0 mph 7.0 mph 54 % 0.00 in
12:55 49.6 °F 33.1 °F 30.39 in North 1.0 mph 5.0 mph 53 % 0.00 in
13:00 50.1 °F 33.6 °F 30.39 in NNW 3.1 mph 5.8 mph 53 % 0.00 in
13:05 50.6 °F 34.6 °F 30.39 in ENE 1.1 mph 3.5 mph 54 % 0.00 in
13:11 51.0 °F 33.5 °F 30.39 in North 1.3 mph 4.0 mph 51 % 0.00 in
13:16 51.3 °F 32.3 °F 30.38 in North 1.6 mph 3.5 mph 48 % 0.00 in
13:21 51.6 °F 32.5 °F 30.38 in NNE 1.0 mph 3.0 mph 48 % 0.00 in
13:26 51.7 °F 32.6 °F 30.38 in North 1.9 mph 5.8 mph 48 % 0.00 in
13:31 51.9 °F 33.3 °F 30.38 in NE 1.4 mph 2.3 mph 49 % 0.00 in
13:36 51.9 °F 32.8 °F 30.37 in NNE 1.8 mph 3.5 mph 48 % 0.00 in
13:41 52.1 °F 33.0 °F 30.37 in NE 2.2 mph 3.5 mph 48 % 0.00 in
13:46 52.1 °F 31.9 °F 30.37 in NE 1.0 mph 3.0 mph 46 % 0.00 in
13:51 52.1 °F 32.5 °F 30.37 in North 1.7 mph 4.6 mph 47 % 0.00 in
13:56 52.1 °F 31.4 °F 30.37 in Calm     45 % 0.00 in
14:02 52.1 °F 33.0 °F 30.37 in NNE 2.2 mph 3.5 mph 48 % 0.00 in
14:07 52.0 °F 32.4 °F 30.37 in NNE 0.1 mph 1.2 mph 47 % 0.00 in
14:12 51.8 °F 32.7 °F 30.37 in Calm   1.0 mph 48 % 0.00 in
14:17 51.6 °F 32.5 °F 30.36 in NE 1.9 mph 3.5 mph 48 % 0.00 in
14:22 51.3 °F 32.8 °F 30.36 in NE 1.1 mph 2.0 mph 49 % 0.00 in
14:27 51.2 °F 32.2 °F 30.36 in NE 1.4 mph 2.3 mph 48 % 0.00 in
14:32 51.0 °F 32.5 °F 30.36 in NE 0.1 mph 1.2 mph 49 % 0.00 in
14:37 50.8 °F 31.8 °F 30.36 in Calm     48 % 0.00 in
14:42 50.7 °F 31.2 °F 30.36 in NE 0.8 mph 2.3 mph 47 % 0.00 in
14:47 50.6 °F 31.6 °F 30.36 in Calm   1.2 mph 48 % 0.00 in
14:52 50.4 °F 31.9 °F 30.36 in NE 0.3 mph 1.2 mph 49 % 0.00 in
14:57 50.4 °F 31.9 °F 30.36 in NE 0.2 mph 1.2 mph 49 % 0.00 in
15:03 50.3 °F 31.8 °F 30.36 in Calm     49 % 0.00 in
15:08 50.2 °F 31.8 °F 30.36 in NE 0.1 mph 1.2 mph 49 % 0.00 in
15:13 50.1 °F 31.7 °F 30.36 in Calm     49 % 0.00 in
15:18 50.0 °F 32.6 °F 30.36 in Calm     51 % 0.00 in
15:23 49.9 °F 32.0 °F 30.35 in Calm     50 % 0.00 in
15:28 49.9 °F 32.0 °F 30.36 in Calm     50 % 0.00 in
15:33 49.9 °F 32.0 °F 30.35 in NE 0.7 mph 2.3 mph 50 % 0.00 in
15:38 49.9 °F 32.5 °F 30.35 in Calm   1.2 mph 51 % 0.00 in
15:43 49.8 °F 32.4 °F 30.35 in Calm     51 % 0.00 in
15:48 49.8 °F 31.4 °F 30.35 in Calm     49 % 0.00 in
15:54 49.7 °F 31.8 °F 30.35 in Calm     50 % 0.00 in
15:59 49.7 °F 32.3 °F 30.35 in Calm     51 % 0.00 in
16:04 49.6 °F 32.7 °F 30.35 in Calm     52 % 0.00 in
16:09 49.5 °F 33.1 °F 30.35 in Calm     53 % 0.00 in
16:14 49.4 °F 33.4 °F 30.35 in Calm     54 % 0.00 in
16:19 49.2 °F 33.7 °F 30.35 in Calm     55 % 0.00 in
16:24 48.9 °F 34.3 °F 30.34 in Calm     57 % 0.00 in
16:29 48.8 °F 34.2 °F 30.34 in Calm     57 % 0.00 in
16:34 48.5 °F 34.4 °F 30.34 in Calm     58 % 0.00 in
16:39 48.3 °F 34.2 °F 30.34 in Calm     58 % 0.00 in
16:44 48.0 °F 34.3 °F 30.34 in Calm     59 % 0.00 in
16:50 47.8 °F 34.6 °F 30.33 in Calm     60 % 0.00 in
16:55 47.5 °F 34.7 °F 30.34 in Calm     61 % 0.00 in
17:00 47.2 °F 34.4 °F 30.34 in NE 1.1 mph 2.3 mph 61 % 0.00 in
17:05 46.9 °F 34.6 °F 30.34 in Calm     62 % 0.00 in
17:10 46.6 °F 34.7 °F 30.34 in NE 0.1 mph 1.2 mph 63 % 0.00 in
17:15 46.3 °F 34.8 °F 30.34 in Calm     64 % 0.00 in
17:20 45.9 °F 34.8 °F 30.34 in Calm     65 % 0.00 in
17:25 45.4 °F 34.7 °F 30.34 in Calm     66 % 0.00 in
17:30 44.9 °F 34.3 °F 30.34 in Calm     66 % 0.00 in
17:35 44.5 °F 34.2 °F 30.34 in Calm     67 % 0.00 in
17:40 44.2 °F 33.9 °F 30.33 in Calm     67 % 0.00 in
17:45 44.0 °F 34.1 °F 30.33 in Calm     68 % 0.00 in
17:55 43.4 °F 34.3 °F 30.33 in Calm     70 % 0.00 in
18:00 43.1 °F 34.0 °F 30.33 in Calm     70 % 0.00 in
18:05 42.9 °F 34.1 °F 30.33 in Calm     71 % 0.00 in
18:10 42.6 °F 33.9 °F 30.33 in Calm     71 % 0.00 in
18:15 42.3 °F 34.3 °F 30.33 in Calm     73 % 0.00 in
18:22 41.9 °F 33.9 °F 30.33 in Calm     73 % 0.00 in
18:27 41.7 °F 33.7 °F 30.33 in Calm     73 % 0.00 in
18:33 41.5 °F 33.5 °F 30.32 in Calm     73 % 0.00 in
18:38 41.2 °F 33.5 °F 30.32 in Calm     74 % 0.00 in
18:43 41.0 °F 33.3 °F 30.32 in Calm     74 % 0.00 in
18:48 40.8 °F 33.5 °F 30.32 in Calm     75 % 0.00 in
18:53 40.6 °F 33.3 °F 30.32 in Calm     75 % 0.00 in
19:00 40.4 °F 33.4 °F 30.32 in Calm     76 % 0.00 in
19:05 40.2 °F 33.6 °F 30.32 in Calm     77 % 0.00 in
19:10 40.1 °F 33.5 °F 30.32 in Calm     77 % 0.00 in
19:15 40.0 °F 33.7 °F 30.32 in Calm     78 % 0.00 in
19:20 39.8 °F 33.5 °F 30.33 in NE 0.4 mph 1.2 mph 78 % 0.00 in
19:25 39.7 °F 33.1 °F 30.32 in Calm   1.0 mph 77 % 0.00 in
19:30 39.6 °F 33.0 °F 30.32 in Calm   1.0 mph 77 % 0.00 in
19:35 39.6 °F 32.9 °F 30.32 in Calm   1.0 mph 77 % 0.00 in
19:40 39.5 °F 32.9 °F 30.32 in Calm     77 % 0.00 in
19:46 39.5 °F 32.9 °F 30.32 in Calm   1.2 mph 77 % 0.00 in
19:51 39.4 °F 32.8 °F 30.33 in Calm     77 % 0.00 in
19:56 39.4 °F 32.8 °F 30.32 in Calm   1.2 mph 77 % 0.00 in
20:01 39.3 °F 33.0 °F 30.32 in NE 0.1 mph   78 % 0.00 in
20:06 39.2 °F 32.9 °F 30.32 in Calm     78 % 0.00 in
20:11 39.2 °F 32.9 °F 30.32 in Calm     78 % 0.00 in
20:16 39.1 °F 32.8 °F 30.32 in Calm     78 % 0.00 in
20:22 39.1 °F 32.8 °F 30.31 in Calm     78 % 0.00 in
20:27 39.0 °F 32.7 °F 30.31 in Calm     78 % 0.00 in
20:32 38.9 °F 32.6 °F 30.31 in Calm     78 % 0.00 in
20:37 38.8 °F 32.5 °F 30.31 in Calm     78 % 0.00 in
20:42 38.7 °F 32.7 °F 30.31 in Calm     79 % 0.00 in
20:47 38.6 °F 32.6 °F 30.31 in Calm   1.2 mph 79 % 0.00 in
20:52 38.6 °F 32.6 °F 30.31 in NE 0.6 mph 1.2 mph 79 % 0.00 in
20:57 38.4 °F 32.5 °F 30.31 in Calm     79 % 0.00 in
21:02 38.3 °F 32.4 °F 30.31 in Calm     79 % 0.00 in
21:07 38.2 °F 32.6 °F 30.31 in NE 0.4 mph 1.2 mph 80 % 0.00 in
21:13 38.1 °F 32.5 °F 30.31 in NE 1.2 mph 2.3 mph 80 % 0.00 in
21:18 38.1 °F 32.5 °F 30.31 in NE 0.1 mph 2.3 mph 80 % 0.00 in
21:23 38.0 °F 32.7 °F 30.31 in NE 0.5 mph 1.2 mph 81 % 0.00 in
21:28 38.0 °F 32.7 °F 30.31 in Calm     81 % 0.00 in
21:33 38.0 °F 32.7 °F 30.30 in Calm     81 % 0.00 in
21:39 38.0 °F 32.7 °F 30.30 in NE 0.3 mph 1.0 mph 81 % 0.00 in
21:44 38.0 °F 32.7 °F 30.30 in Calm   1.2 mph 81 % 0.00 in
21:49 38.0 °F 32.7 °F 30.30 in Calm   1.2 mph 81 % 0.00 in
21:54 37.9 °F 32.9 °F 30.30 in NE 0.7 mph 2.3 mph 82 % 0.00 in
21:59 37.9 °F 32.9 °F 30.30 in Calm     82 % 0.00 in
22:04 37.9 °F 32.9 °F 30.30 in Calm     82 % 0.00 in
22:09 37.9 °F 32.9 °F 30.30 in Calm     82 % 0.00 in
22:14 37.8 °F 32.8 °F 30.29 in Calm     82 % 0.00 in
22:20 37.8 °F 32.8 °F 30.29 in Calm     82 % 0.00 in
22:25 37.8 °F 32.8 °F 30.29 in Calm     82 % 0.00 in
22:30 37.8 °F 32.8 °F 30.29 in Calm     82 % 0.00 in
22:35 37.9 °F 33.2 °F 30.28 in NE 0.9 mph 2.3 mph 83 % 0.00 in
22:40 37.9 °F 33.2 °F 30.28 in Calm     83 % 0.00 in
22:45 37.9 °F 33.2 °F 30.28 in Calm   1.2 mph 83 % 0.00 in
22:50 37.9 °F 33.2 °F 30.28 in Calm   1.2 mph 83 % 0.00 in
22:55 37.8 °F 33.1 °F 30.28 in Calm   2.0 mph 83 % 0.00 in
23:00 37.8 °F 33.1 °F 30.27 in NE 1.2 mph 2.3 mph 83 % 0.00 in
23:05 37.8 °F 33.1 °F 30.27 in NE 1.0 mph 2.0 mph 83 % 0.00 in
23:10 37.7 °F 33.6 °F 30.27 in NW 2.0 mph 4.0 mph 85 % 0.00 in
23:15 37.8 °F 34.0 °F 30.27 in West 0.2 mph 1.2 mph 86 % 0.00 in
23:20 37.9 °F 34.4 °F 30.27 in Calm   2.0 mph 87 % 0.00 in
23:25 37.9 °F 34.4 °F 30.27 in Calm     87 % 0.00 in
23:30 37.9 °F 34.4 °F 30.27 in West 0.8 mph 2.3 mph 87 % 0.00 in
23:35 38.0 °F 34.5 °F 30.27 in West 1.0 mph 2.0 mph 87 % 0.00 in
23:40 38.0 °F 34.5 °F 30.26 in West 1.0 mph 2.0 mph 87 % 0.00 in
23:45 38.0 °F 34.5 °F 30.26 in West 1.0 mph 3.0 mph 87 % 0.00 in
23:50 38.2 °F 34.9 °F 30.26 in West 1.0 mph 2.0 mph 88 % 0.00 in
23:55 38.2 °F 35.0 °F 30.26 in West 1.0 mph 3.0 mph 88 % 0.00 in
Crab Meadow Weather
Compliments of Weather Underground - 3 mb

Script developed by  Jim McMurry - jmcmurry@mwt.net Adapted for the template by  Wim van der Kuil - Leuven-Template.eu

Hurricanes: Hurricanes are classified into five categories, based on their wind speeds and potential to cause damage. * Category One -- Winds 74-95 miles per hour * Category Two -- Winds 96-110 miles per hour * Category Three -- Winds 111-130 miles per hour * Category Four -- Winds 131-155 miles per hour * Category Five -- Winds greater than 155 miles per hour.